Time;durP1;ratioP1;P1;durP2;ratioP2;P2;SDS_P1;SDS_P2;PMS_P1;PMS_P2;Temp;Humidity;BMP_temperature;BMP_pressure;BME280_temperature;BME280_humidity;BME280_pressure;Samples;Min_cycle;Max_cycle;Signal;HPM_P1;HPM_P2
2023/05/14 00:01:35;;;;;;;22.53;16.23;;;;;;;;;;5033255;28;20422;-46
2023/05/14 00:04:01;;;;;;;18.87;11.83;;;;;;;;;;5036009;28;20411;-46
2023/05/14 00:06:27;;;;;;;17.90;13.30;;;;;;;;;;5041674;28;20777;-46
2023/05/14 00:08:53;;;;;;;15.90;12.27;;;;;;;;;;5038913;28;20437;-45
2023/05/14 00:11:19;;;;;;;16.33;13.97;;;;;;;;;;5039186;28;20802;-46
2023/05/14 00:13:45;;;;;;;17.97;12.53;;;;;;;;;;5026099;28;20822;-46
2023/05/14 00:16:11;;;;;;;22.03;14.50;;;;;;;;;;5032290;28;20438;-45
2023/05/14 00:18:37;;;;;;;19.73;15.63;;;;;;;;;;5042185;28;20539;-45
2023/05/14 00:21:03;;;;;;;20.03;14.13;;;;;;;;;;5038051;28;20903;-46
2023/05/14 00:23:29;;;;;;;18.90;15.03;;;;;;;;;;5042190;28;20433;-46
2023/05/14 00:25:55;;;;;;;18.53;14.97;;;;;;;;;;5027169;28;20402;-46
2023/05/14 00:28:21;;;;;;;20.00;15.00;;;;;;;;;;5034188;28;20407;-45
2023/05/14 00:30:47;;;;;;;17.50;14.03;;;;;;;;;;5037692;28;20403;-46
2023/05/14 00:33:13;;;;;;;21.67;16.33;;;;;;;;;;5036534;28;20828;-46
2023/05/14 00:35:39;;;;;;;18.23;14.30;;;;;;;;;;5033218;28;20417;-46
2023/05/14 00:38:05;;;;;;;19.70;14.43;;;;;;;;;;5038293;28;20420;-46
2023/05/14 00:40:31;;;;;;;20.63;14.40;;;;;;;;;;5041614;28;20416;-45
2023/05/14 00:42:57;;;;;;;18.90;14.13;;;;;;;;;;5038275;28;20444;-45
2023/05/14 00:45:23;;;;;;;15.93;14.30;;;;;;;;;;5031245;28;20405;-45
2023/05/14 00:47:50;;;;;;;19.97;15.80;;;;;;;;;;5030525;28;20414;-46
2023/05/14 00:50:16;;;;;;;22.97;14.50;;;;;;;;;;5039559;28;20411;-45
2023/05/14 00:52:42;;;;;;;23.00;13.03;;;;;;;;;;5041706;28;20433;-46
2023/05/14 00:55:09;;;;;;;18.93;13.20;;;;;;;;;;5038375;28;20426;-46
2023/05/14 00:57:35;;;;;;;20.90;14.43;;;;;;;;;;5037753;28;20416;-46
2023/05/14 01:00:02;;;;;;;18.80;13.30;;;;;;;;;;5035856;28;20556;-45
2023/05/14 01:02:28;;;;;;;15.67;12.50;;;;;;;;;;5031310;28;20431;-46
2023/05/14 01:04:54;;;;;;;18.93;13.23;;;;;;;;;;5044625;28;20504;-45
2023/05/14 01:07:23;;;;;;;16.70;13.23;;;;;;;;;;5044124;28;20548;-46
2023/05/14 01:09:54;;;;;;;18.87;13.43;;;;;;;;;;5037162;28;20619;-45
2023/05/14 01:12:28;;;;;;;19.07;14.10;;;;;;;;;;5043682;28;20420;-45
2023/05/14 01:14:57;;;;;;;16.30;12.73;;;;;;;;;;5038568;28;20448;-45
2023/05/14 01:17:26;;;;;;;20.07;12.90;;;;;;;;;;5036088;28;20829;-45
2023/05/14 01:19:52;;;;;;;16.60;11.77;;;;;;;;;;5041685;28;20841;-45
2023/05/14 01:22:18;;;;;;;16.57;13.50;;;;;;;;;;5045204;28;20441;-46
2023/05/14 01:24:44;;;;;;;14.43;12.87;;;;;;;;;;5040700;28;20786;-45
2023/05/14 01:27:16;;;;;;;30.17;13.70;;;;;;;;;;5034821;28;20415;-45
2023/05/14 01:29:44;;;;;;;21.40;12.17;;;;;;;;;;5035770;28;20451;-46
2023/05/14 01:32:12;;;;;;;14.70;12.63;;;;;;;;;;5040537;28;20434;-47
2023/05/14 01:34:39;;;;;;;19.33;12.77;;;;;;;;;;5046047;28;20427;-45
2023/05/14 01:37:06;;;;;;;16.40;13.00;;;;;;;;;;5041212;28;20755;-46
2023/05/14 01:39:32;;;;;;;16.00;13.57;;;;;;;;;;5032586;28;20548;-47
2023/05/14 01:41:59;;;;;;;18.77;12.93;;;;;;;;;;5031091;28;20541;-45
2023/05/14 01:44:25;;;;;;;18.37;13.67;;;;;;;;;;5023237;28;20904;-46
2023/05/14 01:46:52;;;;;;;16.40;14.37;;;;;;;;;;5045018;28;20420;-46
2023/05/14 01:49:19;;;;;;;15.50;13.37;;;;;;;;;;5040819;28;20415;-45
2023/05/14 01:51:45;;;;;;;17.47;14.17;;;;;;;;;;5040376;28;20901;-46
2023/05/14 01:54:11;;;;;;;18.83;14.40;;;;;;;;;;5042030;28;20421;-46
2023/05/14 01:56:37;;;;;;;19.80;13.63;;;;;;;;;;5025346;28;20859;-47
2023/05/14 01:59:03;;;;;;;16.83;13.43;;;;;;;;;;5032663;28;20485;-46
2023/05/14 02:01:29;;;;;;;25.47;16.90;;;;;;;;;;5043042;28;20424;-45
2023/05/14 02:03:55;;;;;;;16.43;12.47;;;;;;;;;;5043387;28;20569;-46
2023/05/14 02:06:21;;;;;;;19.03;12.37;;;;;;;;;;5044151;28;20401;-46
2023/05/14 02:08:47;;;;;;;16.67;13.23;;;;;;;;;;5031898;28;20791;-46
2023/05/14 02:11:13;;;;;;;20.20;13.87;;;;;;;;;;5032293;28;20826;-45
2023/05/14 02:13:39;;;;;;;17.47;13.53;;;;;;;;;;5043376;28;20504;-46
2023/05/14 02:16:05;;;;;;;24.87;15.80;;;;;;;;;;5050175;28;21006;-46
2023/05/14 02:18:31;;;;;;;19.20;13.67;;;;;;;;;;5040298;28;20813;-47
2023/05/14 02:20:57;;;;;;;19.13;14.60;;;;;;;;;;5045038;28;20393;-46
2023/05/14 02:23:23;;;;;;;19.30;15.03;;;;;;;;;;5040494;28;20513;-45
2023/05/14 02:25:49;;;;;;;20.37;15.20;;;;;;;;;;5033047;28;20403;-46
2023/05/14 02:28:15;;;;;;;25.60;16.43;;;;;;;;;;5041585;28;20421;-46
2023/05/14 02:30:41;;;;;;;23.70;16.67;;;;;;;;;;5044846;28;20448;-47
2023/05/14 02:33:07;;;;;;;27.47;14.00;;;;;;;;;;5039460;28;20442;-46
2023/05/14 02:35:33;;;;;;;16.67;14.53;;;;;;;;;;5044345;28;20410;-46
2023/05/14 02:37:59;;;;;;;21.17;13.67;;;;;;;;;;5033807;28;20434;-46
2023/05/14 02:40:25;;;;;;;18.70;12.33;;;;;;;;;;5037466;28;20964;-46
2023/05/14 02:42:51;;;;;;;18.03;13.03;;;;;;;;;;5042982;28;20433;-47
2023/05/14 02:45:17;;;;;;;20.97;13.50;;;;;;;;;;5040072;28;20412;-45
2023/05/14 02:47:43;;;;;;;16.97;14.00;;;;;;;;;;5032090;28;20792;-46
2023/05/14 02:50:10;;;;;;;14.30;12.53;;;;;;;;;;5040323;28;20441;-45
2023/05/14 02:52:36;;;;;;;15.50;12.23;;;;;;;;;;5026160;28;20947;-46
2023/05/14 02:55:02;;;;;;;17.00;13.40;;;;;;;;;;5036732;28;20488;-46
2023/05/14 02:57:28;;;;;;;16.63;13.53;;;;;;;;;;5040704;28;20541;-46
2023/05/14 02:59:54;;;;;;;16.70;12.57;;;;;;;;;;5046056;28;20551;-46
2023/05/14 03:02:20;;;;;;;16.40;13.57;;;;;;;;;;5035783;28;20843;-46
2023/05/14 03:04:45;;;;;;;17.63;13.50;;;;;;;;;;5032348;28;20431;-46
2023/05/14 03:07:11;;;;;;;18.50;13.50;;;;;;;;;;5043174;28;20402;-45
2023/05/14 03:09:37;;;;;;;16.30;12.80;;;;;;;;;;5034297;28;20443;-46
2023/05/14 03:12:03;;;;;;;15.40;12.57;;;;;;;;;;5039793;28;20431;-46
2023/05/14 03:14:29;;;;;;;15.90;12.20;;;;;;;;;;5043758;28;20426;-46
2023/05/14 03:16:55;;;;;;;17.67;13.03;;;;;;;;;;5040844;28;20499;-47
2023/05/14 03:19:21;;;;;;;19.20;13.90;;;;;;;;;;5038372;28;20456;-46
2023/05/14 03:21:48;;;;;;;16.60;11.80;;;;;;;;;;5032222;28;20438;-45
2023/05/14 03:24:14;;;;;;;17.90;14.47;;;;;;;;;;5040577;28;20410;-45
2023/05/14 03:26:40;;;;;;;23.10;13.97;;;;;;;;;;5043473;28;20767;-46
2023/05/14 03:29:07;;;;;;;20.20;13.70;;;;;;;;;;5027133;28;20429;-46
2023/05/14 03:31:33;;;;;;;21.63;15.23;;;;;;;;;;5026370;28;20473;-45
2023/05/14 03:33:59;;;;;;;15.70;12.47;;;;;;;;;;5029606;28;20433;-45
2023/05/14 03:36:25;;;;;;;20.10;13.40;;;;;;;;;;5036739;28;20478;-46
2023/05/14 03:38:51;;;;;;;16.43;13.10;;;;;;;;;;5040263;28;20464;-46
2023/05/14 03:41:18;;;;;;;20.00;14.97;;;;;;;;;;5039395;28;20415;-45
2023/05/14 03:43:44;;;;;;;16.57;13.13;;;;;;;;;;5040163;28;20432;-45
2023/05/14 03:46:10;;;;;;;22.93;14.47;;;;;;;;;;5042140;28;20401;-45
2023/05/14 03:48:36;;;;;;;20.20;12.93;;;;;;;;;;5036169;28;20453;-46
2023/05/14 03:51:02;;;;;;;18.37;14.80;;;;;;;;;;5034425;28;20417;-46
2023/05/14 03:53:28;;;;;;;16.53;13.60;;;;;;;;;;5038988;28;20442;-47
2023/05/14 03:55:55;;;;;;;17.60;13.10;;;;;;;;;;5030901;28;20775;-46
2023/05/14 03:58:21;;;;;;;16.20;12.40;;;;;;;;;;5039061;28;20414;-45
2023/05/14 04:00:47;;;;;;;16.60;12.50;;;;;;;;;;5036193;28;20415;-45
2023/05/14 04:03:13;;;;;;;16.73;13.30;;;;;;;;;;5039135;28;20776;-47
2023/05/14 04:05:39;;;;;;;17.70;11.53;;;;;;;;;;5039741;28;20405;-45
2023/05/14 04:08:05;;;;;;;17.93;14.03;;;;;;;;;;5040345;28;20782;-46
2023/05/14 04:10:31;;;;;;;18.47;13.17;;;;;;;;;;5043509;28;20873;-46
2023/05/14 04:12:57;;;;;;;14.00;11.93;;;;;;;;;;5043418;28;20433;-46
2023/05/14 04:15:23;;;;;;;18.57;13.43;;;;;;;;;;5037630;28;20917;-45
2023/05/14 04:17:49;;;;;;;15.87;13.43;;;;;;;;;;5038052;28;20410;-46
2023/05/14 04:20:15;;;;;;;14.60;11.87;;;;;;;;;;5042456;28;20456;-45
2023/05/14 04:22:42;;;;;;;17.00;13.70;;;;;;;;;;5034687;28;20786;-45
2023/05/14 04:25:08;;;;;;;16.57;13.40;;;;;;;;;;5038489;28;20429;-45
2023/05/14 04:27:34;;;;;;;21.23;16.00;;;;;;;;;;5039693;28;20420;-45
2023/05/14 04:30:00;;;;;;;15.67;13.43;;;;;;;;;;5037827;28;20417;-46
2023/05/14 04:32:26;;;;;;;17.80;14.00;;;;;;;;;;5035917;28;20440;-45
2023/05/14 04:34:52;;;;;;;16.63;13.90;;;;;;;;;;5042959;28;20420;-46
2023/05/14 04:37:18;;;;;;;18.90;12.53;;;;;;;;;;5042905;28;20426;-45
2023/05/14 04:39:44;;;;;;;18.13;14.67;;;;;;;;;;5044139;28;20533;-46
2023/05/14 04:42:10;;;;;;;17.60;13.13;;;;;;;;;;5042203;28;20433;-46
2023/05/14 04:44:36;;;;;;;19.33;13.37;;;;;;;;;;5040127;28;20920;-45
2023/05/14 04:47:02;;;;;;;23.80;16.53;;;;;;;;;;5035315;28;20406;-46
2023/05/14 04:49:29;;;;;;;18.10;14.40;;;;;;;;;;5023542;28;20923;-46
2023/05/14 04:51:55;;;;;;;17.53;13.83;;;;;;;;;;5028808;28;20445;-45
2023/05/14 04:54:21;;;;;;;17.67;15.20;;;;;;;;;;5042387;28;20413;-46
2023/05/14 04:56:47;;;;;;;19.93;15.17;;;;;;;;;;5040084;28;20969;-46
2023/05/14 04:59:13;;;;;;;22.13;17.03;;;;;;;;;;5042724;28;20453;-46
2023/05/14 05:01:41;;;;;;;23.17;18.60;;;;;;;;;;5036442;28;20436;-46
2023/05/14 05:04:06;;;;;;;25.20;15.13;;;;;;;;;;5042857;28;20440;-47
2023/05/14 05:06:32;;;;;;;20.20;14.27;;;;;;;;;;5041327;28;20419;-45
2023/05/14 05:08:58;;;;;;;23.90;15.50;;;;;;;;;;5051223;28;20466;-46
2023/05/14 05:11:24;;;;;;;26.03;16.90;;;;;;;;;;5036195;28;20784;-45
2023/05/14 05:13:50;;;;;;;22.00;14.47;;;;;;;;;;5033266;28;20456;-46
2023/05/14 05:16:16;;;;;;;21.90;14.93;;;;;;;;;;5016834;28;20456;-47
2023/05/14 05:18:43;;;;;;;18.93;14.30;;;;;;;;;;5043066;28;20456;-46
2023/05/14 05:21:09;;;;;;;22.47;14.80;;;;;;;;;;5049218;28;20450;-45
2023/05/14 05:23:35;;;;;;;18.50;13.50;;;;;;;;;;5038866;28;20465;-46
2023/05/14 05:26:01;;;;;;;16.77;13.90;;;;;;;;;;5042556;28;20422;-45
2023/05/14 05:28:27;;;;;;;19.10;12.67;;;;;;;;;;5033513;28;20535;-46
2023/05/14 05:30:53;;;;;;;14.77;13.17;;;;;;;;;;5031247;28;20420;-46
2023/05/14 05:33:19;;;;;;;15.90;12.90;;;;;;;;;;5042283;28;20483;-46
2023/05/14 05:35:45;;;;;;;15.00;12.47;;;;;;;;;;5043315;28;20414;-47
2023/05/14 05:38:11;;;;;;;18.73;13.07;;;;;;;;;;5040517;28;20398;-46
2023/05/14 05:40:37;;;;;;;17.13;15.17;;;;;;;;;;5039270;28;20980;-46
2023/05/14 05:43:03;;;;;;;19.30;13.27;;;;;;;;;;5036971;28;20442;-45
2023/05/14 05:45:30;;;;;;;16.43;12.60;;;;;;;;;;5030355;28;20931;-46
2023/05/14 05:47:58;;;;;;;16.43;12.03;;;;;;;;;;5043009;28;20453;-46
2023/05/14 05:50:25;;;;;;;14.07;11.93;;;;;;;;;;5039243;28;20918;-47
2023/05/14 05:52:53;;;;;;;13.10;11.67;;;;;;;;;;5037610;28;20439;-47
2023/05/14 05:55:19;;;;;;;16.73;12.43;;;;;;;;;;5042397;28;20527;-45
2023/05/14 05:57:45;;;;;;;15.90;13.00;;;;;;;;;;5036665;28;20445;-45
2023/05/14 06:00:14;;;;;;;15.57;13.40;;;;;;;;;;5034107;28;20506;-46
2023/05/14 06:02:42;;;;;;;14.70;11.10;;;;;;;;;;5036021;28;20841;-47
2023/05/14 06:05:09;;;;;;;16.60;11.80;;;;;;;;;;5035111;28;20432;-46
2023/05/14 06:07:35;;;;;;;18.57;13.00;;;;;;;;;;5040863;28;20417;-45
2023/05/14 06:10:02;;;;;;;16.70;13.00;;;;;;;;;;5047678;28;20423;-46
2023/05/14 06:12:28;;;;;;;13.77;11.93;;;;;;;;;;5040552;28;20463;-46
2023/05/14 06:14:56;;;;;;;14.70;12.10;;;;;;;;;;5037731;28;20435;-47
2023/05/14 06:17:22;;;;;;;13.60;11.43;;;;;;;;;;5030173;28;20449;-46
2023/05/14 06:19:48;;;;;;;11.40;10.30;;;;;;;;;;5044232;28;20493;-46
2023/05/14 06:22:14;;;;;;;12.10;10.50;;;;;;;;;;5045585;28;20494;-47
2023/05/14 06:24:40;;;;;;;12.40;10.90;;;;;;;;;;5042068;28;20402;-46
2023/05/14 06:27:06;;;;;;;11.53;10.33;;;;;;;;;;5039785;28;20406;-45
2023/05/14 06:29:32;;;;;;;12.97;11.00;;;;;;;;;;5037349;28;20423;-46
2023/05/14 06:32:01;;;;;;;14.43;11.57;;;;;;;;;;5035051;28;21039;-45
2023/05/14 06:34:27;;;;;;;11.30;10.10;;;;;;;;;;5034281;28;20917;-46
2023/05/14 06:36:53;;;;;;;12.10;10.70;;;;;;;;;;5044204;28;20454;-45
2023/05/14 06:39:19;;;;;;;12.63;10.50;;;;;;;;;;5036843;28;20462;-47
2023/05/14 06:41:45;;;;;;;12.83;11.10;;;;;;;;;;5036562;28;20819;-45
2023/05/14 06:44:11;;;;;;;10.40;9.30;;;;;;;;;;5030532;28;20409;-46
2023/05/14 06:46:37;;;;;;;14.87;10.03;;;;;;;;;;5034556;28;20885;-46
2023/05/14 06:49:03;;;;;;;10.37;9.37;;;;;;;;;;5041793;28;20464;-47
2023/05/14 06:51:29;;;;;;;16.57;12.13;;;;;;;;;;5043372;28;20424;-46
2023/05/14 06:53:55;;;;;;;13.60;10.53;;;;;;;;;;5041213;28;20491;-46
2023/05/14 06:56:22;;;;;;;12.70;10.63;;;;;;;;;;5031275;28;20897;-46
2023/05/14 06:58:48;;;;;;;11.80;9.00;;;;;;;;;;5041730;28;20524;-46
2023/05/14 07:01:14;;;;;;;15.07;9.10;;;;;;;;;;5042584;28;20413;-47
2023/05/14 07:03:40;;;;;;;11.70;9.30;;;;;;;;;;5043375;28;20805;-46
2023/05/14 07:06:06;;;;;;;13.20;10.73;;;;;;;;;;5040015;28;20488;-46
2023/05/14 07:08:32;;;;;;;10.87;9.57;;;;;;;;;;5040106;28;20778;-48
2023/05/14 07:10:59;;;;;;;10.90;9.10;;;;;;;;;;5034378;28;20483;-46
2023/05/14 07:13:29;;;;;;;12.03;9.67;;;;;;;;;;5021614;28;20442;-45
2023/05/14 07:15:55;;;;;;;9.83;8.83;;;;;;;;;;5043348;28;20421;-47
2023/05/14 07:18:22;;;;;;;12.77;9.70;;;;;;;;;;5039763;28;20406;-46
2023/05/14 07:20:48;;;;;;;9.50;8.50;;;;;;;;;;5039881;28;20408;-46
2023/05/14 07:23:13;;;;;;;9.30;8.40;;;;;;;;;;5040063;28;20483;-46
2023/05/14 07:25:39;;;;;;;8.97;8.07;;;;;;;;;;5036125;28;20417;-45
2023/05/14 07:28:06;;;;;;;8.70;7.87;;;;;;;;;;5026987;28;20397;-45
2023/05/14 07:30:32;;;;;;;8.03;7.33;;;;;;;;;;5046883;28;20975;-47
2023/05/14 07:32:58;;;;;;;7.70;7.00;;;;;;;;;;5044195;28;20450;-47
2023/05/14 07:35:25;;;;;;;8.90;6.23;;;;;;;;;;5028506;28;20456;-48
2023/05/14 07:37:51;;;;;;;7.13;6.27;;;;;;;;;;5039558;28;20820;-45
2023/05/14 07:40:18;;;;;;;6.53;5.17;;;;;;;;;;5040374;28;20534;-46
2023/05/14 07:42:44;;;;;;;6.37;5.77;;;;;;;;;;5033876;28;20472;-46
2023/05/14 07:45:10;;;;;;;5.83;5.30;;;;;;;;;;5041364;28;20420;-46
2023/05/14 07:47:36;;;;;;;6.63;5.57;;;;;;;;;;5036897;28;20418;-46
2023/05/14 07:50:02;;;;;;;8.17;7.23;;;;;;;;;;5023156;28;20438;-46
2023/05/14 07:52:28;;;;;;;7.73;5.87;;;;;;;;;;5026399;28;20424;-46
2023/05/14 07:54:54;;;;;;;5.93;5.17;;;;;;;;;;5041049;28;20963;-46
2023/05/14 07:57:20;;;;;;;5.10;4.70;;;;;;;;;;5042566;28;20510;-45
2023/05/14 07:59:47;;;;;;;5.47;4.97;;;;;;;;;;5021247;28;20464;-46
2023/05/14 08:02:14;;;;;;;4.97;4.57;;;;;;;;;;5033499;28;20435;-46
2023/05/14 08:04:40;;;;;;;6.57;4.67;;;;;;;;;;5032493;28;20480;-47
2023/05/14 08:07:07;;;;;;;4.67;4.17;;;;;;;;;;5041643;28;20401;-48
2023/05/14 08:09:33;;;;;;;5.03;4.63;;;;;;;;;;5043136;28;20439;-47
2023/05/14 08:11:59;;;;;;;6.77;3.80;;;;;;;;;;5032460;28;20475;-47
2023/05/14 08:14:27;;;;;;;3.60;3.30;;;;;;;;;;5033963;28;20432;-46
2023/05/14 08:16:53;;;;;;;4.03;3.70;;;;;;;;;;5041114;28;20417;-48
2023/05/14 08:19:19;;;;;;;4.23;3.83;;;;;;;;;;5031448;28;20980;-48
2023/05/14 08:21:45;;;;;;;4.30;3.90;;;;;;;;;;5040544;28;20410;-48
2023/05/14 08:24:11;;;;;;;4.27;3.93;;;;;;;;;;5045282;28;20471;-46
2023/05/14 08:26:37;;;;;;;3.37;3.17;;;;;;;;;;5043941;28;20402;-47
2023/05/14 08:29:03;;;;;;;3.33;3.10;;;;;;;;;;5041807;28;20452;-47
2023/05/14 08:31:31;;;;;;;3.23;3.03;;;;;;;;;;5038288;28;20441;-48
2023/05/14 08:33:57;;;;;;;3.90;3.60;;;;;;;;;;5040088;28;20436;-47
2023/05/14 08:36:22;;;;;;;4.73;3.40;;;;;;;;;;5034334;28;20760;-48
2023/05/14 08:38:49;;;;;;;3.33;3.03;;;;;;;;;;5044335;28;20461;-48
2023/05/14 08:41:16;;;;;;;2.83;2.63;;;;;;;;;;5037784;28;20407;-45
2023/05/14 08:44:05;;;;;;;3.13;2.90;;;;;;;;;;5036693;28;20431;-45
2023/05/14 08:46:32;;;;;;;4.00;2.80;;;;;;;;;;5032354;28;20447;-47
2023/05/14 08:49:07;;;;;;;3.20;2.90;;;;;;;;;;5038610;28;20410;-47
2023/05/14 08:51:33;;;;;;;3.40;3.20;;;;;;;;;;5035694;28;20409;-47
2023/05/14 08:54:02;;;;;;;3.03;2.73;;;;;;;;;;5043136;28;20442;-47
2023/05/14 08:56:30;;;;;;;3.23;3.03;;;;;;;;;;5041927;28;20414;-48
2023/05/14 08:58:56;;;;;;;4.03;3.30;;;;;;;;;;5035657;28;21038;-48
2023/05/14 09:01:22;;;;;;;3.73;3.47;;;;;;;;;;5038278;28;20539;-48
2023/05/14 09:03:48;;;;;;;3.03;2.83;;;;;;;;;;5045190;28;20441;-46
2023/05/14 09:06:15;;;;;;;3.17;2.97;;;;;;;;;;5040990;28;20416;-47
2023/05/14 09:08:41;;;;;;;3.27;2.93;;;;;;;;;;5046559;28;20492;-48
2023/05/14 09:11:07;;;;;;;3.73;2.67;;;;;;;;;;5041027;28;20406;-47
2023/05/14 09:13:36;;;;;;;3.20;3.00;;;;;;;;;;5024932;28;20436;-48
2023/05/14 09:16:02;;;;;;;2.87;2.67;;;;;;;;;;5038066;28;20908;-48
2023/05/14 09:18:28;;;;;;;2.87;2.67;;;;;;;;;;5040825;28;20423;-47
2023/05/14 09:20:54;;;;;;;2.60;2.40;;;;;;;;;;5044867;28;20413;-47
2023/05/14 09:23:20;;;;;;;3.07;2.43;;;;;;;;;;5040380;28;20425;-47
2023/05/14 09:25:47;;;;;;;3.30;3.00;;;;;;;;;;5037607;28;20422;-48
2023/05/14 09:28:17;;;;;;;2.97;2.73;;;;;;;;;;5036491;28;20463;-47
2023/05/14 09:30:51;;;;;;;2.80;2.60;;;;;;;;;;5043324;28;20905;-47
2023/05/14 09:33:26;;;;;;;2.90;2.70;;;;;;;;;;5043279;28;20472;-48
2023/05/14 09:35:54;;;;;;;3.47;2.97;;;;;;;;;;5041442;28;20416;-47
2023/05/14 09:38:20;;;;;;;3.60;3.30;;;;;;;;;;5046210;28;20913;-48
2023/05/14 09:40:46;;;;;;;2.97;2.77;;;;;;;;;;5042729;28;20461;-47
2023/05/14 09:43:12;;;;;;;3.30;3.00;;;;;;;;;;5030210;28;20522;-47
2023/05/14 09:45:40;;;;;;;5.03;2.93;;;;;;;;;;5052040;28;20413;-47
2023/05/14 09:48:07;;;;;;;2.80;2.60;;;;;;;;;;5040356;28;20419;-47
2023/05/14 09:50:41;;;;;;;2.73;2.53;;;;;;;;;;5044743;28;20780;-48
2023/05/14 09:53:07;;;;;;;3.43;3.20;;;;;;;;;;5042407;28;20461;-47
2023/05/14 09:55:33;;;;;;;3.17;2.97;;;;;;;;;;5037458;28;20419;-46
2023/05/14 09:58:00;;;;;;;3.53;3.33;;;;;;;;;;5019540;28;20435;-46
2023/05/14 10:00:26;;;;;;;3.13;2.93;;;;;;;;;;5044625;28;20977;-47
2023/05/14 10:02:53;;;;;;;2.80;2.60;;;;;;;;;;5043353;28;20440;-47
2023/05/14 10:05:20;;;;;;;3.53;3.20;;;;;;;;;;5036950;28;20420;-47
2023/05/14 10:07:47;;;;;;;2.73;2.57;;;;;;;;;;5040762;28;20454;-47
2023/05/14 10:10:15;;;;;;;3.10;2.90;;;;;;;;;;5039840;28;20906;-47
2023/05/14 10:12:43;;;;;;;2.97;2.77;;;;;;;;;;5024676;28;20524;-48
2023/05/14 10:15:16;;;;;;;5.97;2.97;;;;;;;;;;5050394;28;20425;-47
2023/05/14 10:17:47;;;;;;;4.17;2.67;;;;;;;;;;5041670;28;20422;-46
2023/05/14 10:20:15;;;;;;;3.10;2.90;;;;;;;;;;5027907;28;20466;-46
2023/05/14 10:22:41;;;;;;;2.93;2.73;;;;;;;;;;5038418;28;20778;-47
2023/05/14 10:25:08;;;;;;;2.80;2.60;;;;;;;;;;5030197;28;20425;-47
2023/05/14 10:27:34;;;;;;;2.83;2.63;;;;;;;;;;5039289;28;20421;-47
2023/05/14 10:30:00;;;;;;;3.10;2.83;;;;;;;;;;5038941;28;20414;-47
2023/05/14 10:32:31;;;;;;;3.27;2.30;;;;;;;;;;5044000;28;20422;-46
2023/05/14 10:34:58;;;;;;;2.53;2.33;;;;;;;;;;5037227;28;20176;-46
2023/05/14 10:37:27;;;;;;;2.33;2.23;;;;;;;;;;5038016;28;20410;-46
2023/05/14 10:39:54;;;;;;;2.43;2.23;;;;;;;;;;5027244;28;20458;-45
2023/05/14 10:42:20;;;;;;;3.87;2.30;;;;;;;;;;5019993;28;20466;-47
2023/05/14 10:44:50;;;;;;;2.80;2.60;;;;;;;;;;5021906;28;20512;-46
2023/05/14 10:47:16;;;;;;;3.50;2.60;;;;;;;;;;5032768;28;20262;-46
2023/05/14 10:49:43;;;;;;;2.77;2.40;;;;;;;;;;5032722;28;20426;-47
2023/05/14 10:52:10;;;;;;;2.00;1.90;;;;;;;;;;5031815;28;20527;-46
2023/05/14 10:54:36;;;;;;;2.40;2.17;;;;;;;;;;5032708;28;20909;-46
2023/05/14 10:57:02;;;;;;;2.50;1.97;;;;;;;;;;5027526;28;20442;-46
2023/05/14 10:59:28;;;;;;;3.20;2.67;;;;;;;;;;5026885;28;20474;-46
2023/05/14 11:01:56;;;;;;;2.27;2.07;;;;;;;;;;5029851;28;20480;-46
2023/05/14 11:04:27;;;;;;;2.60;2.40;;;;;;;;;;5035315;28;20421;-47
2023/05/14 11:06:53;;;;;;;2.60;2.40;;;;;;;;;;5035733;28;20463;-46
2023/05/14 11:09:21;;;;;;;2.93;2.40;;;;;;;;;;5043218;28;20918;-46
2023/05/14 11:11:47;;;;;;;2.60;2.40;;;;;;;;;;5041819;28;20445;-47
2023/05/14 11:14:13;;;;;;;2.20;2.10;;;;;;;;;;5041086;28;20846;-46
2023/05/14 11:16:40;;;;;;;2.70;2.40;;;;;;;;;;5038769;28;20548;-46
2023/05/14 11:19:06;;;;;;;2.43;2.33;;;;;;;;;;5037762;28;20559;-46
2023/05/14 11:21:32;;;;;;;3.17;2.87;;;;;;;;;;5029736;28;20406;-47
2023/05/14 11:24:02;;;;;;;2.70;2.50;;;;;;;;;;5043185;28;20471;-46
2023/05/14 11:26:29;;;;;;;3.70;2.47;;;;;;;;;;5032555;28;20417;-47
2023/05/14 11:28:55;;;;;;;2.63;2.10;;;;;;;;;;5027895;28;20996;-46
2023/05/14 11:31:22;;;;;;;8.90;2.70;;;;;;;;;;5041666;28;20401;-46
2023/05/14 11:33:48;;;;;;;3.00;2.77;;;;;;;;;;5035045;28;20476;-46
2023/05/14 11:36:15;;;;;;;2.97;2.77;;;;;;;;;;5034032;28;20449;-46
2023/05/14 11:38:50;;;;;;;4.13;2.83;;;;;;;;;;5039423;28;20244;-46
2023/05/14 11:41:19;;;;;;;2.73;2.53;;;;;;;;;;5043555;28;20920;-47
2023/05/14 11:43:45;;;;;;;2.80;2.30;;;;;;;;;;5038283;28;20479;-46
2023/05/14 11:46:17;;;;;;;3.00;2.70;;;;;;;;;;5032515;28;20414;-46
2023/05/14 11:48:43;;;;;;;2.10;2.00;;;;;;;;;;5033497;28;20921;-46
2023/05/14 11:51:09;;;;;;;4.07;2.67;;;;;;;;;;5038647;28;20485;-46
2023/05/14 11:53:35;;;;;;;3.27;2.50;;;;;;;;;;5042703;28;20820;-46
2023/05/14 11:56:02;;;;;;;7.20;3.03;;;;;;;;;;5039229;28;20184;-46
2023/05/14 11:58:27;;;;;;;2.53;2.33;;;;;;;;;;5033479;28;20594;-47
2023/05/14 12:00:55;;;;;;;2.37;2.17;;;;;;;;;;5037915;28;20468;-45
2023/05/14 12:03:24;;;;;;;2.57;2.37;;;;;;;;;;5028333;28;20277;-47
2023/05/14 12:05:58;;;;;;;2.80;2.60;;;;;;;;;;5042636;28;20504;-46
2023/05/14 12:08:31;;;;;;;2.70;2.50;;;;;;;;;;5042799;28;20895;-46
2023/05/14 12:10:58;;;;;;;2.73;2.53;;;;;;;;;;5039420;28;20909;-46
2023/05/14 12:13:28;;;;;;;2.77;2.57;;;;;;;;;;5038566;28;20522;-46
2023/05/14 12:15:55;;;;;;;4.07;2.60;;;;;;;;;;5040388;28;20535;-46
2023/05/14 12:18:21;;;;;;;4.07;2.60;;;;;;;;;;5032920;28;20422;-46
2023/05/14 12:20:48;;;;;;;3.53;3.23;;;;;;;;;;5039111;28;20560;-46
2023/05/14 12:23:14;;;;;;;2.63;2.47;;;;;;;;;;5040919;28;20439;-46
2023/05/14 12:25:40;;;;;;;4.97;2.43;;;;;;;;;;5039432;28;20413;-46
2023/05/14 12:28:16;;;;;;;2.57;2.37;;;;;;;;;;5034535;28;20459;-47
2023/05/14 12:30:43;;;;;;;2.20;2.10;;;;;;;;;;5033529;28;20422;-46
2023/05/14 12:33:09;;;;;;;3.23;2.10;;;;;;;;;;5037709;28;20433;-45
2023/05/14 12:35:38;;;;;;;2.10;2.00;;;;;;;;;;5043265;28;20405;-46
2023/05/14 12:38:05;;;;;;;2.20;2.00;;;;;;;;;;5038998;28;20407;-46
2023/05/14 12:40:31;;;;;;;2.63;2.20;;;;;;;;;;5035540;28;20465;-47
2023/05/14 12:42:57;;;;;;;2.50;2.40;;;;;;;;;;5036268;28;20430;-46
2023/05/14 12:45:23;;;;;;;2.27;2.07;;;;;;;;;;5029057;28;20416;-46
2023/05/14 12:47:50;;;;;;;2.03;1.90;;;;;;;;;;5042593;28;20183;-46
2023/05/14 12:50:17;;;;;;;2.20;2.00;;;;;;;;;;5039157;28;20427;-46
2023/05/14 12:52:43;;;;;;;2.30;2.10;;;;;;;;;;5039322;28;20425;-47
2023/05/14 12:55:09;;;;;;;2.90;2.17;;;;;;;;;;5038712;28;20402;-46
2023/05/14 12:57:37;;;;;;;2.70;2.30;;;;;;;;;;5037818;28;20521;-47
2023/05/14 13:00:07;;;;;;;2.47;2.27;;;;;;;;;;5023405;28;20470;-46
2023/05/14 13:02:33;;;;;;;2.43;2.23;;;;;;;;;;5044155;28;20457;-46
2023/05/14 13:05:01;;;;;;;2.57;2.37;;;;;;;;;;5044331;28;20749;-46
2023/05/14 13:07:28;;;;;;;2.53;2.33;;;;;;;;;;5039795;28;20830;-46
2023/05/14 13:09:56;;;;;;;2.63;2.47;;;;;;;;;;5037227;28;20418;-46
2023/05/14 13:12:22;;;;;;;2.20;2.10;;;;;;;;;;5041266;28;20431;-47
2023/05/14 13:14:48;;;;;;;2.73;2.53;;;;;;;;;;5037931;28;20803;-46
2023/05/14 13:17:15;;;;;;;4.83;2.57;;;;;;;;;;5044936;28;20714;-46
2023/05/14 13:19:41;;;;;;;4.00;2.87;;;;;;;;;;5046667;28;20477;-45
2023/05/14 13:22:07;;;;;;;3.70;2.70;;;;;;;;;;5043153;28;20433;-46
2023/05/14 13:24:34;;;;;;;2.67;2.47;;;;;;;;;;5037132;28;20214;-46
2023/05/14 13:27:00;;;;;;;2.73;2.43;;;;;;;;;;5031444;28;20442;-45
2023/05/14 13:29:30;;;;;;;2.60;2.40;;;;;;;;;;5045832;28;20473;-46
2023/05/14 13:31:56;;;;;;;2.33;2.13;;;;;;;;;;5042302;28;20490;-46
2023/05/14 13:34:22;;;;;;;3.00;2.33;;;;;;;;;;5045369;28;20441;-45
2023/05/14 13:36:49;;;;;;;2.40;2.20;;;;;;;;;;5040448;28;20936;-45
2023/05/14 13:39:21;;;;;;;6.50;2.20;;;;;;;;;;5040227;28;20964;-46
2023/05/14 13:41:47;;;;;;;2.67;2.20;;;;;;;;;;5034776;28;20414;-47
2023/05/14 13:44:13;;;;;;;2.97;2.77;;;;;;;;;;5043636;28;20788;-48
2023/05/14 13:46:40;;;;;;;3.93;2.80;;;;;;;;;;5044251;28;20548;-47
2023/05/14 13:49:05;;;;;;;2.80;2.53;;;;;;;;;;5038711;28;20176;-46
2023/05/14 13:51:31;;;;;;;5.30;4.53;;;;;;;;;;5042501;28;20763;-48
2023/05/14 13:53:57;;;;;;;2.90;2.70;;;;;;;;;;5038407;28;20548;-48
2023/05/14 13:56:25;;;;;;;5.50;3.03;;;;;;;;;;5036709;28;20573;-47
2023/05/14 13:58:51;;;;;;;3.20;2.70;;;;;;;;;;5046149;28;20418;-47
2023/05/14 14:01:17;;;;;;;4.20;2.53;;;;;;;;;;5046451;28;20915;-48
2023/05/14 14:03:43;;;;;;;2.97;2.70;;;;;;;;;;5040744;28;20429;-47
2023/05/14 14:06:10;;;;;;;3.10;2.80;;;;;;;;;;5035298;28;20412;-47
2023/05/14 14:08:36;;;;;;;3.47;2.63;;;;;;;;;;5043657;28;20207;-47
2023/05/14 14:11:02;;;;;;;3.33;2.93;;;;;;;;;;5039285;28;20841;-46
2023/05/14 14:13:29;;;;;;;3.13;2.93;;;;;;;;;;5044000;28;20936;-49
2023/05/14 14:15:55;;;;;;;2.63;2.43;;;;;;;;;;5042215;28;20426;-47
2023/05/14 14:18:21;;;;;;;2.90;2.70;;;;;;;;;;5046465;28;20468;-47
2023/05/14 14:20:47;;;;;;;2.40;2.20;;;;;;;;;;5038770;28;20468;-48
2023/05/14 14:23:13;;;;;;;3.30;2.83;;;;;;;;;;5030956;28;20450;-48
2023/05/14 14:25:39;;;;;;;3.13;2.80;;;;;;;;;;5033974;28;20887;-48
2023/05/14 14:28:05;;;;;;;3.60;3.30;;;;;;;;;;5031217;28;20421;-48